createdAt,value
2023-04-03T00:01:53.842Z,2.53
2023-04-03T00:04:25.563Z,2.42
2023-04-03T00:06:54.888Z,2.40
2023-04-03T00:09:28.658Z,2.45
2023-04-03T00:11:58.014Z,2.53
2023-04-03T00:14:26.271Z,2.70
2023-04-03T00:17:10.723Z,2.25
2023-04-03T00:19:38.779Z,2.40
2023-04-03T00:22:15.303Z,2.50
2023-04-03T00:24:43.159Z,2.55
2023-04-03T00:27:10.729Z,2.22
2023-04-03T00:29:38.290Z,2.67
2023-04-03T00:32:12.155Z,2.53
2023-04-03T00:34:42.492Z,2.15
2023-04-03T00:37:11.054Z,2.70
2023-04-03T00:39:38.987Z,2.55
2023-04-03T00:42:07.852Z,2.63
2023-04-03T00:44:35.138Z,2.50
2023-04-03T00:47:15.978Z,2.40
2023-04-03T00:49:58.256Z,2.67
2023-04-03T00:55:18.991Z,2.03
2023-04-03T01:00:39.560Z,2.20
2023-04-03T01:03:12.602Z,2.35
2023-04-03T01:05:41.314Z,2.35
2023-04-03T01:08:11.669Z,2.42
2023-04-03T01:10:50.916Z,2.60
2023-04-03T01:13:36.334Z,2.72
2023-04-03T01:16:27.329Z,2.58
2023-04-03T01:18:58.203Z,2.30
2023-04-03T01:21:59.772Z,2.63
2023-04-03T01:24:49.818Z,2.50
2023-04-03T01:27:27.806Z,2.65
2023-04-03T01:29:57.648Z,2.40
2023-04-03T01:32:29.341Z,2.47
2023-04-03T01:35:01.106Z,2.45
2023-04-03T01:37:30.957Z,2.42
2023-04-03T01:40:04.322Z,2.40
2023-04-03T01:42:39.216Z,2.45
2023-04-03T01:45:20.862Z,2.55
2023-04-03T01:50:54.137Z,2.38
2023-04-03T01:53:35.080Z,2.58
2023-04-03T01:56:22.099Z,2.67
2023-04-03T01:58:59.508Z,2.80
2023-04-03T02:01:32.214Z,2.60
2023-04-03T02:04:13.517Z,2.75
2023-04-03T02:09:51.322Z,2.80
2023-04-03T02:13:03.602Z,2.67
2023-04-03T02:16:07.510Z,2.75
2023-04-03T02:18:37.085Z,2.95
2023-04-03T02:21:06.251Z,3.10
2023-04-03T02:23:35.776Z,2.78
2023-04-03T02:26:29.291Z,2.80
2023-04-03T02:29:00.482Z,2.75
2023-04-03T02:31:34.691Z,2.60
2023-04-03T02:34:03.143Z,2.50
2023-04-03T02:36:31.892Z,2.53
2023-04-03T02:39:01.162Z,2.80
2023-04-03T02:41:35.933Z,2.90
2023-04-03T02:44:10.467Z,2.53
2023-04-03T02:46:38.126Z,2.70
2023-04-03T02:49:06.484Z,2.78
2023-04-03T02:51:34.052Z,2.83
2023-04-03T02:54:04.228Z,2.50
2023-04-03T02:56:31.959Z,2.92
2023-04-03T02:58:59.461Z,3.10
2023-04-03T03:01:32.604Z,2.65
2023-04-03T03:04:01.729Z,2.67
2023-04-03T03:06:29.347Z,2.45
2023-04-03T03:08:56.900Z,3.10
2023-04-03T03:11:27.208Z,2.83
2023-04-03T03:13:57.622Z,3.03
2023-04-03T03:16:25.414Z,2.83
2023-04-03T03:18:52.976Z,2.72
2023-04-03T03:21:20.754Z,2.80
2023-04-03T03:23:48.279Z,3.05
2023-04-03T03:26:16.954Z,3.33
2023-04-03T03:28:48.898Z,3.03
2023-04-03T03:31:17.240Z,2.70
2023-04-03T03:33:45.193Z,2.90
2023-04-03T03:36:14.398Z,3.10
2023-04-03T03:38:43.903Z,3.00
2023-04-03T03:41:11.592Z,3.05
2023-04-03T03:43:39.977Z,3.03
2023-04-03T03:46:11.084Z,3.40
2023-04-03T03:48:52.936Z,3.60
2023-04-03T03:51:24.386Z,3.40
2023-04-03T03:53:53.993Z,3.33
2023-04-03T03:56:36.383Z,3.42
2023-04-03T03:59:04.860Z,3.58
2023-04-03T04:01:35.588Z,3.63
2023-04-03T04:04:08.920Z,3.20
2023-04-03T04:06:38.030Z,3.20
2023-04-03T04:09:08.921Z,3.60
2023-04-03T04:11:46.078Z,4.00
2023-04-03T04:14:24.896Z,3.75
2023-04-03T04:20:06.740Z,3.33
2023-04-03T04:22:40.456Z,3.80
2023-04-03T04:25:18.081Z,3.83
2023-04-03T04:30:29.885Z,3.30
2023-04-03T04:33:08.376Z,3.60
2023-04-03T04:35:39.306Z,3.45
2023-04-03T04:38:09.825Z,3.50
2023-04-03T04:40:38.749Z,3.70
2023-04-03T04:43:06.458Z,3.63
2023-04-03T04:45:34.110Z,3.60
2023-04-03T04:48:04.201Z,3.00
2023-04-03T04:50:36.472Z,3.60
2023-04-03T04:53:05.244Z,3.25
2023-04-03T04:55:32.669Z,3.30
2023-04-03T04:58:00.248Z,3.63
2023-04-03T05:00:29.272Z,3.67
2023-04-03T05:02:56.729Z,3.97
2023-04-03T05:05:25.465Z,3.58
2023-04-03T05:07:53.647Z,4.03
2023-04-03T05:10:22.146Z,3.80
2023-04-03T05:12:57.883Z,3.80
2023-04-03T05:15:25.429Z,3.88
2023-04-03T05:17:52.940Z,4.30
2023-04-03T05:20:20.474Z,4.13
2023-04-03T05:22:48.091Z,3.97
2023-04-03T05:25:21.684Z,3.92
2023-04-03T05:27:49.204Z,4.47
2023-04-03T05:30:17.063Z,4.32
2023-04-03T05:32:45.036Z,3.70
2023-04-03T05:35:12.787Z,3.22
2023-04-03T05:37:42.560Z,4.15
2023-04-03T05:40:10.664Z,3.60
2023-04-03T05:42:38.168Z,3.50
2023-04-03T05:45:06.060Z,4.00
2023-04-03T05:47:33.569Z,4.30
2023-04-03T05:50:06.909Z,3.63
2023-04-03T05:52:39.150Z,4.00
2023-04-03T05:55:08.065Z,3.55
2023-04-03T05:57:35.500Z,3.92
2023-04-03T06:00:04.556Z,3.80
2023-04-03T06:02:32.524Z,3.92
2023-04-03T06:04:59.963Z,3.90
2023-04-03T06:07:29.446Z,4.70
2023-04-03T06:09:58.742Z,4.50
2023-04-03T06:12:26.202Z,4.32
2023-04-03T06:14:53.540Z,3.95
2023-04-03T06:17:21.269Z,3.90
2023-04-03T06:19:49.068Z,4.60
2023-04-03T06:22:16.936Z,4.35
2023-04-03T06:24:44.964Z,3.95
2023-04-03T06:27:13.420Z,3.65
2023-04-03T06:29:41.042Z,3.35
2023-04-03T06:32:08.945Z,3.80
2023-04-03T06:34:36.393Z,3.58
2023-04-03T06:37:07.122Z,3.75
2023-04-03T06:39:34.468Z,3.30
2023-04-03T06:42:01.884Z,3.78
2023-04-03T06:44:29.243Z,3.30
2023-04-03T06:46:56.746Z,2.92
2023-04-03T06:49:24.228Z,3.47
2023-04-03T06:51:52.869Z,3.28
2023-04-03T06:54:21.612Z,3.10
2023-04-03T06:56:49.933Z,3.20
2023-04-03T06:59:18.107Z,3.63
2023-04-03T07:01:45.580Z,3.03
2023-04-03T07:04:13.635Z,3.20
2023-04-03T07:06:41.619Z,3.47
2023-04-03T07:09:10.019Z,2.90
2023-04-03T07:11:37.733Z,3.20
2023-04-03T07:14:05.427Z,3.65
2023-04-03T07:16:33.039Z,3.30
2023-04-03T07:19:01.035Z,3.67
2023-04-03T07:21:29.165Z,3.20
2023-04-03T07:23:57.215Z,2.97
2023-04-03T07:26:26.623Z,3.40
2023-04-03T07:28:54.166Z,2.97
2023-04-03T07:31:24.434Z,3.40
2023-04-03T07:33:55.576Z,3.25
2023-04-03T07:36:23.807Z,3.13
2023-04-03T07:38:52.851Z,3.00
2023-04-03T07:41:23.475Z,3.15
2023-04-03T07:43:51.210Z,3.10
2023-04-03T07:46:19.742Z,2.72
2023-04-03T07:48:47.370Z,3.00
2023-04-03T07:51:15.040Z,2.67
2023-04-03T07:53:44.038Z,2.88
2023-04-03T07:56:12.193Z,2.97
2023-04-03T07:58:39.695Z,2.97
2023-04-03T08:01:07.392Z,2.65
2023-04-03T08:03:36.760Z,2.90
2023-04-03T08:06:11.926Z,2.67
2023-04-03T08:08:43.344Z,2.15
2023-04-03T08:11:14.513Z,3.70
2023-04-03T08:13:44.862Z,2.55
2023-04-03T08:16:17.792Z,3.08
2023-04-03T08:18:46.347Z,2.75
2023-04-03T08:21:16.591Z,2.67
2023-04-03T08:23:43.966Z,3.10
2023-04-03T08:26:18.965Z,3.05
2023-04-03T08:28:46.428Z,2.97
2023-04-03T08:31:16.377Z,2.92
2023-04-03T08:33:44.144Z,3.45
2023-04-03T08:36:26.289Z,3.28
2023-04-03T08:38:54.521Z,2.73
2023-04-03T08:41:34.963Z,2.88
2023-04-03T08:44:23.408Z,2.88
2023-04-03T08:47:12.818Z,3.25
2023-04-03T08:49:54.116Z,3.00
2023-04-03T08:52:33.556Z,2.90
2023-04-03T08:55:06.083Z,2.83
2023-04-03T08:57:45.607Z,3.20
2023-04-03T09:00:13.211Z,3.05
2023-04-03T09:02:48.113Z,3.00
2023-04-03T09:05:23.372Z,2.78
2023-04-03T09:08:16.713Z,2.72
2023-04-03T09:10:44.478Z,2.58
2023-04-03T09:13:48.024Z,2.67
2023-04-03T09:16:35.512Z,2.50
2023-04-03T09:19:32.141Z,2.40
2023-04-03T09:22:19.624Z,2.40
2023-04-03T09:25:32.079Z,2.40
2023-04-03T09:28:03.919Z,2.22
2023-04-03T09:30:32.799Z,2.45
2023-04-03T09:33:00.763Z,2.22
2023-04-03T09:35:44.891Z,2.30
2023-04-03T09:38:17.367Z,2.20
2023-04-03T09:40:46.848Z,1.98
2023-04-03T09:43:32.242Z,1.50
2023-04-03T09:46:19.377Z,1.20
2023-04-03T09:49:08.097Z,1.55
2023-04-03T09:51:37.576Z,1.60
2023-04-03T09:54:31.452Z,1.20
2023-04-03T09:57:06.363Z,1.00
2023-04-03T09:59:34.340Z,1.10
2023-04-03T10:02:05.663Z,1.00
2023-04-03T10:04:43.250Z,1.13
2023-04-03T10:07:32.087Z,1.30
2023-04-03T10:10:02.708Z,1.40
2023-04-03T10:12:31.566Z,3.33
2023-04-03T10:15:02.969Z,1.40
2023-04-03T10:17:56.729Z,1.35
2023-04-03T10:20:34.581Z,0.90
2023-04-03T10:23:22.027Z,1.10
2023-04-03T10:26:14.745Z,1.10
2023-04-03T10:29:06.824Z,1.30
2023-04-03T10:31:56.110Z,1.10
2023-04-03T10:34:54.701Z,0.95
2023-04-03T10:37:51.917Z,1.10
2023-04-03T10:40:33.365Z,0.77
2023-04-03T10:43:26.889Z,0.65
2023-04-03T10:46:03.895Z,1.00
2023-04-03T10:48:44.194Z,1.10
2023-04-03T10:52:12.260Z,1.30
2023-04-03T10:54:59.352Z,0.75
2023-04-03T10:57:27.612Z,0.90
2023-04-03T11:00:05.406Z,1.00
2023-04-03T11:02:51.471Z,0.75
2023-04-03T11:05:40.807Z,0.80
2023-04-03T11:08:27.814Z,1.00
2023-04-03T11:11:27.792Z,0.90
2023-04-03T11:14:08.327Z,0.88
2023-04-03T11:20:06.323Z,1.08
2023-04-03T11:23:04.681Z,1.33
2023-04-03T11:25:39.330Z,1.00
2023-04-03T11:31:26.420Z,1.00
2023-04-03T11:34:29.448Z,0.98
2023-04-03T11:37:01.187Z,1.15
2023-04-03T11:39:40.926Z,0.70
2023-04-03T11:42:37.759Z,0.98
2023-04-03T11:45:51.765Z,0.80
2023-04-03T11:48:39.297Z,0.80
2023-04-03T11:51:42.904Z,0.93
2023-04-03T11:54:45.602Z,0.85
2023-04-03T11:57:47.257Z,0.90
2023-04-03T12:01:09.595Z,0.70
2023-04-03T12:03:47.953Z,0.70
2023-04-03T12:06:17.760Z,1.00
2023-04-03T12:08:52.588Z,1.10
2023-04-03T12:11:31.566Z,0.95
2023-04-03T12:13:58.848Z,1.10
2023-04-03T12:16:41.685Z,0.95
2023-04-03T12:19:41.308Z,1.08
2023-04-03T12:22:16.914Z,0.55
2023-04-03T12:24:48.036Z,1.00
2023-04-03T12:27:42.051Z,0.93
2023-04-03T12:30:27.483Z,0.98
2023-04-03T12:33:13.221Z,1.15
2023-04-03T12:36:06.854Z,0.88
2023-04-03T12:38:59.874Z,1.10
2023-04-03T12:41:38.538Z,0.85
2023-04-03T12:44:20.894Z,0.80
2023-04-03T12:46:51.123Z,1.10
2023-04-03T12:49:31.185Z,1.05
2023-04-03T12:51:59.824Z,1.55
2023-04-03T12:54:37.016Z,1.35
2023-04-03T12:57:28.742Z,1.67
2023-04-03T12:59:59.555Z,1.27
2023-04-03T13:02:31.274Z,1.40
2023-04-03T13:05:04.075Z,1.45
2023-04-03T13:10:38.106Z,1.42
2023-04-03T13:13:27.925Z,1.25
2023-04-03T13:16:09.909Z,1.50
2023-04-03T13:18:44.177Z,1.27
2023-04-03T13:21:40.486Z,1.30
2023-04-03T13:24:16.510Z,1.45
2023-04-03T13:26:58.550Z,1.20
2023-04-03T13:29:50.503Z,1.60
2023-04-03T13:32:52.341Z,1.65
2023-04-03T13:35:49.028Z,1.23
2023-04-03T13:38:42.298Z,1.63
2023-04-03T13:41:49.867Z,1.98
2023-04-03T13:44:26.313Z,1.45
2023-04-03T13:47:02.682Z,1.60
2023-04-03T13:49:39.105Z,1.75
2023-04-03T13:52:39.573Z,1.42
2023-04-03T13:55:37.532Z,1.60
2023-04-03T13:58:26.492Z,1.23
2023-04-03T14:00:57.737Z,1.52
2023-04-03T14:03:31.895Z,1.48
2023-04-03T14:06:00.149Z,1.20
2023-04-03T14:08:36.026Z,1.58
2023-04-03T14:11:36.894Z,1.50
2023-04-03T14:14:11.289Z,1.50
2023-04-03T14:16:44.895Z,2.10
2023-04-03T14:19:30.713Z,1.48
2023-04-03T14:22:17.919Z,1.55
2023-04-03T14:24:58.911Z,1.80
2023-04-03T14:27:37.844Z,1.80
2023-04-03T14:30:14.238Z,1.65
2023-04-03T14:33:02.947Z,1.60
2023-04-03T14:35:31.449Z,1.80
2023-04-03T14:38:03.533Z,1.63
2023-04-03T14:41:13.994Z,1.30
2023-04-03T14:43:44.404Z,1.73
2023-04-03T14:46:48.359Z,1.70
2023-04-03T14:49:26.019Z,1.60
2023-04-03T14:55:13.942Z,1.80
2023-04-03T14:57:45.230Z,1.80
2023-04-03T15:00:30.776Z,1.70
2023-04-03T15:02:58.680Z,1.58
2023-04-03T15:05:26.326Z,1.60
2023-04-03T15:07:58.251Z,1.73
2023-04-03T15:10:28.640Z,1.88
2023-04-03T15:12:56.812Z,1.90
2023-04-03T15:15:25.022Z,1.70
2023-04-03T15:17:55.952Z,1.85
2023-04-03T15:20:26.168Z,1.90
2023-04-03T15:22:54.148Z,1.75
2023-04-03T15:25:21.615Z,1.60
2023-04-03T15:27:55.257Z,1.63
2023-04-03T15:30:22.818Z,1.60
2023-04-03T15:32:51.922Z,1.75
2023-04-03T15:35:19.405Z,1.90
2023-04-03T15:37:46.918Z,1.48
2023-04-03T15:40:14.232Z,1.70
2023-04-03T15:42:41.746Z,1.60
2023-04-03T15:45:09.871Z,1.58
2023-04-03T15:47:37.574Z,1.67
2023-04-03T15:50:07.956Z,1.80
2023-04-03T15:52:35.756Z,1.70
2023-04-03T15:55:06.325Z,1.85
2023-04-03T16:00:06.970Z,1.42
2023-04-03T16:02:34.875Z,1.80
2023-04-03T16:05:02.350Z,1.90
2023-04-03T16:07:29.904Z,1.45
2023-04-03T16:09:57.457Z,1.80
2023-04-03T16:12:24.987Z,1.92
2023-04-03T16:14:56.226Z,1.80
2023-04-03T16:17:24.571Z,1.88
2023-04-03T16:19:53.960Z,1.85
2023-04-03T16:22:23.612Z,1.88
2023-04-03T16:24:54.498Z,1.75
2023-04-03T16:27:22.878Z,1.80
2023-04-03T16:29:58.372Z,1.98
2023-04-03T16:32:31.454Z,2.50
2023-04-03T16:35:10.588Z,2.00
2023-04-03T16:37:52.460Z,2.15
2023-04-03T16:40:32.616Z,1.95
2023-04-03T16:43:09.815Z,1.73
2023-04-03T16:45:40.136Z,1.92
2023-04-03T16:48:07.657Z,2.08
2023-04-03T16:50:35.610Z,1.95
2023-04-03T16:53:03.999Z,2.03
2023-04-03T16:55:31.584Z,1.80
2023-04-03T16:58:02.087Z,2.00
2023-04-03T17:00:32.441Z,1.92
2023-04-03T17:02:59.794Z,1.90
2023-04-03T17:05:27.310Z,2.10
2023-04-03T17:07:54.714Z,2.08
2023-04-03T17:10:35.297Z,1.88
2023-04-03T17:13:05.172Z,1.83
2023-04-03T17:15:32.556Z,1.80
2023-04-03T17:18:00.016Z,2.03
2023-04-03T17:20:27.678Z,3.35
2023-04-03T17:22:55.688Z,2.05
2023-04-03T17:25:37.415Z,2.05
2023-04-03T17:28:08.083Z,2.30
2023-04-03T17:30:44.834Z,2.10
2023-04-03T17:33:17.035Z,2.28
2023-04-03T17:35:55.343Z,1.98
2023-04-03T17:38:44.111Z,2.33
2023-04-03T17:41:14.913Z,2.40
2023-04-03T17:43:42.764Z,2.45
2023-04-03T17:46:12.569Z,2.20
2023-04-03T17:48:41.980Z,2.08
2023-04-03T17:53:55.144Z,2.20
2023-04-03T17:56:27.239Z,1.98
2023-04-03T17:58:56.810Z,1.90
2023-04-03T18:01:29.663Z,2.40
2023-04-03T18:03:59.652Z,2.33
2023-04-03T18:06:48.270Z,2.30
2023-04-03T18:09:25.935Z,2.65
2023-04-03T18:11:56.444Z,2.05
2023-04-03T18:14:31.372Z,2.10
2023-04-03T18:16:59.070Z,2.10
2023-04-03T18:19:41.146Z,2.65
2023-04-03T18:22:19.769Z,2.67
2023-04-03T18:24:52.840Z,2.28
2023-04-03T18:32:51.570Z,2.40
2023-04-03T18:35:27.598Z,2.47
2023-04-03T18:37:55.915Z,2.20
2023-04-03T18:40:24.601Z,2.42
2023-04-03T18:42:52.484Z,2.15
2023-04-03T18:45:25.218Z,2.50
2023-04-03T18:47:55.496Z,2.00
2023-04-03T18:50:23.587Z,2.30
2023-04-03T18:52:54.476Z,2.50
2023-04-03T18:55:24.197Z,2.47
2023-04-03T18:57:59.579Z,2.78
2023-04-03T19:00:44.809Z,2.97
2023-04-03T19:03:19.115Z,2.63
2023-04-03T19:05:53.843Z,2.70
2023-04-03T19:08:31.018Z,2.50
2023-04-03T19:11:09.572Z,2.60
2023-04-03T19:16:33.776Z,2.78
2023-04-03T19:19:04.200Z,3.13
2023-04-03T19:21:37.865Z,2.83
2023-04-03T19:24:32.089Z,2.80
2023-04-03T19:29:51.282Z,3.20
2023-04-03T19:32:21.767Z,3.00
2023-04-03T19:35:20.159Z,3.08
2023-04-03T19:40:50.942Z,3.05
2023-04-03T19:43:18.556Z,3.40
2023-04-03T19:45:48.945Z,3.60
2023-04-03T19:48:19.560Z,3.83
2023-04-03T19:50:48.652Z,3.70
2023-04-03T19:53:19.428Z,3.40
2023-04-03T19:55:47.888Z,3.50
2023-04-03T19:58:21.472Z,3.22
2023-04-03T20:06:36.178Z,3.10
2023-04-03T20:09:04.293Z,3.22
2023-04-03T20:14:19.661Z,3.63
2023-04-03T20:16:48.041Z,3.63
2023-04-03T20:19:20.180Z,3.50
2023-04-03T20:22:02.031Z,3.13
2023-04-03T20:24:35.387Z,3.75
2023-04-03T20:27:09.801Z,3.75
2023-04-03T20:29:40.439Z,3.80
2023-04-03T20:32:10.530Z,3.65
2023-04-03T20:34:38.230Z,4.35
2023-04-03T20:37:06.135Z,4.05
2023-04-03T20:39:33.808Z,3.88
2023-04-03T20:42:02.396Z,3.92
2023-04-03T20:44:30.909Z,3.65
2023-04-03T20:46:58.458Z,3.75
2023-04-03T20:49:25.975Z,3.63
2023-04-03T20:51:53.715Z,3.75
2023-04-03T20:54:21.810Z,3.45
2023-04-03T20:56:49.905Z,3.90
2023-04-03T20:59:18.390Z,3.70
2023-04-03T21:01:47.746Z,3.45
2023-04-03T21:04:23.086Z,4.00
2023-04-03T21:07:27.895Z,3.67
2023-04-03T21:10:33.002Z,3.47
2023-04-03T21:13:37.880Z,3.13
2023-04-03T21:16:05.252Z,3.53
2023-04-03T21:18:50.814Z,3.42
2023-04-03T21:21:26.363Z,3.47
2023-04-03T21:23:55.318Z,3.30
2023-04-03T21:26:23.414Z,3.50
2023-04-03T21:28:52.373Z,3.53
2023-04-03T21:31:23.362Z,3.70
2023-04-03T21:33:51.410Z,3.42
2023-04-03T21:36:18.774Z,3.92
2023-04-03T21:38:47.746Z,4.00
2023-04-03T21:41:15.538Z,3.38
2023-04-03T21:43:45.240Z,3.03
2023-04-03T21:46:12.879Z,3.40
2023-04-03T21:48:40.388Z,3.58
2023-04-03T21:51:08.337Z,3.15
2023-04-03T21:53:36.144Z,3.72
2023-04-03T21:56:03.676Z,3.63
2023-04-03T21:58:32.485Z,3.83
2023-04-03T22:01:16.113Z,3.78
2023-04-03T22:03:44.574Z,3.83
2023-04-03T22:06:13.624Z,3.38
2023-04-03T22:08:41.303Z,3.53
2023-04-03T22:11:10.794Z,3.35
2023-04-03T22:13:38.348Z,3.78
2023-04-03T22:16:06.466Z,3.58
2023-04-03T22:18:34.438Z,3.60
2023-04-03T22:21:01.974Z,3.72
2023-04-03T22:23:29.355Z,3.58
2023-04-03T22:26:11.316Z,3.78
2023-04-03T22:28:43.879Z,3.33
2023-04-03T22:31:14.390Z,3.65
2023-04-03T22:33:43.137Z,3.72
2023-04-03T22:36:11.637Z,3.60
2023-04-03T22:38:41.404Z,3.75
2023-04-03T22:41:09.022Z,3.80
2023-04-03T22:43:37.463Z,3.60
2023-04-03T22:46:07.342Z,4.10
2023-04-03T22:48:35.109Z,4.05
2023-04-03T22:51:07.546Z,4.18
2023-04-03T22:53:35.740Z,4.10
2023-04-03T22:56:14.209Z,3.85
2023-04-03T22:58:41.607Z,3.50
2023-04-03T23:01:10.909Z,4.18
2023-04-03T23:03:39.747Z,4.10
2023-04-03T23:06:08.318Z,4.30
2023-04-03T23:08:38.140Z,3.88
2023-04-03T23:11:07.374Z,4.38
2023-04-03T23:13:35.470Z,4.18
2023-04-03T23:16:03.824Z,4.05
2023-04-03T23:18:32.566Z,4.10
2023-04-03T23:21:01.382Z,4.25
2023-04-03T23:23:29.025Z,4.30
2023-04-03T23:25:58.825Z,4.30
2023-04-03T23:28:28.374Z,3.95
2023-04-03T23:31:03.352Z,4.00
2023-04-03T23:33:33.480Z,4.30
2023-04-03T23:36:14.999Z,4.10
2023-04-03T23:38:43.662Z,4.30
2023-04-03T23:41:12.671Z,3.92
2023-04-03T23:43:43.321Z,4.57
2023-04-03T23:46:12.499Z,4.28
2023-04-03T23:48:42.424Z,3.70
2023-04-03T23:51:10.881Z,4.15
2023-04-03T23:53:38.752Z,4.07
2023-04-03T23:56:11.689Z,3.75
2023-04-03T23:58:41.254Z,3.78
